sensor_id;sensor_type;location;lat;lon;timestamp;temperature;humidity
19868;DHT22;10096;51.112;6.776;2023-10-13T00:02:11;17.90;1.00
19868;DHT22;10096;51.112;6.776;2023-10-13T00:05:17;17.90;1.00
19868;DHT22;10096;51.112;6.776;2023-10-13T00:08:13;17.90;1.00
19868;DHT22;10096;51.112;6.776;2023-10-13T00:10:59;17.90;1.00
19868;DHT22;10096;51.112;6.776;2023-10-13T00:13:35;18.10;1.00
19868;DHT22;10096;51.112;6.776;2023-10-13T00:16:08;18.00;1.00
19868;DHT22;10096;51.112;6.776;2023-10-13T00:18:42;18.00;1.00
19868;DHT22;10096;51.112;6.776;2023-10-13T00:21:10;17.80;1.00
19868;DHT22;10096;51.112;6.776;2023-10-13T00:23:41;17.90;1.00
19868;DHT22;10096;51.112;6.776;2023-10-13T00:26:18;17.80;1.00
19868;DHT22;10096;51.112;6.776;2023-10-13T00:28:49;17.80;1.00
19868;DHT22;10096;51.112;6.776;2023-10-13T00:31:24;17.80;1.00
19868;DHT22;10096;51.112;6.776;2023-10-13T00:33:54;17.90;1.00
19868;DHT22;10096;51.112;6.776;2023-10-13T00:36:41;17.80;1.00
19868;DHT22;10096;51.112;6.776;2023-10-13T00:39:35;17.80;1.00
19868;DHT22;10096;51.112;6.776;2023-10-13T00:43:04;17.80;1.00
19868;DHT22;10096;51.112;6.776;2023-10-13T00:45:49;17.90;1.00
19868;DHT22;10096;51.112;6.776;2023-10-13T00:48:23;17.80;1.00
19868;DHT22;10096;51.112;6.776;2023-10-13T00:51:21;17.90;1.00
19868;DHT22;10096;51.112;6.776;2023-10-13T00:54:12;17.70;1.00
19868;DHT22;10096;51.112;6.776;2023-10-13T00:59:56;17.60;1.00
19868;DHT22;10096;51.112;6.776;2023-10-13T01:02:43;17.90;1.00
19868;DHT22;10096;51.112;6.776;2023-10-13T01:05:11;17.90;1.00
19868;DHT22;10096;51.112;6.776;2023-10-13T01:07:45;17.80;1.00
19868;DHT22;10096;51.112;6.776;2023-10-13T01:10:12;17.70;1.00
19868;DHT22;10096;51.112;6.776;2023-10-13T01:12:47;17.70;1.00
19868;DHT22;10096;51.112;6.776;2023-10-13T01:15:34;17.70;1.00
19868;DHT22;10096;51.112;6.776;2023-10-13T01:18:19;17.70;1.00
19868;DHT22;10096;51.112;6.776;2023-10-13T01:20:46;17.80;1.00
19868;DHT22;10096;51.112;6.776;2023-10-13T01:23:32;17.60;1.00
19868;DHT22;10096;51.112;6.776;2023-10-13T01:26:20;17.80;1.00
19868;DHT22;10096;51.112;6.776;2023-10-13T01:32:00;17.90;1.00
19868;DHT22;10096;51.112;6.776;2023-10-13T01:34:28;17.40;1.00
19868;DHT22;10096;51.112;6.776;2023-10-13T01:37:02;17.70;1.00
19868;DHT22;10096;51.112;6.776;2023-10-13T01:39:39;17.70;1.00
19868;DHT22;10096;51.112;6.776;2023-10-13T01:42:26;17.80;1.00
19868;DHT22;10096;51.112;6.776;2023-10-13T01:44:54;18.10;1.00
19868;DHT22;10096;51.112;6.776;2023-10-13T01:47:37;17.90;1.00
19868;DHT22;10096;51.112;6.776;2023-10-13T01:53:27;17.90;1.00
19868;DHT22;10096;51.112;6.776;2023-10-13T01:55:55;17.90;1.00
19868;DHT22;10096;51.112;6.776;2023-10-13T01:58:37;18.00;1.00
19868;DHT22;10096;51.112;6.776;2023-10-13T02:01:09;18.00;1.00
19868;DHT22;10096;51.112;6.776;2023-10-13T02:03:36;18.00;1.00
19868;DHT22;10096;51.112;6.776;2023-10-13T02:06:26;17.80;1.00
19868;DHT22;10096;51.112;6.776;2023-10-13T02:09:04;17.80;1.00
19868;DHT22;10096;51.112;6.776;2023-10-13T02:11:53;17.80;1.00
19868;DHT22;10096;51.112;6.776;2023-10-13T02:14:28;18.00;1.00
19868;DHT22;10096;51.112;6.776;2023-10-13T02:17:04;17.80;1.00
19868;DHT22;10096;51.112;6.776;2023-10-13T02:19:38;18.00;1.00
19868;DHT22;10096;51.112;6.776;2023-10-13T02:22:10;17.90;1.00
19868;DHT22;10096;51.112;6.776;2023-10-13T02:24:43;17.80;1.00
19868;DHT22;10096;51.112;6.776;2023-10-13T02:27:18;17.90;1.00
19868;DHT22;10096;51.112;6.776;2023-10-13T02:29:49;17.80;1.00
19868;DHT22;10096;51.112;6.776;2023-10-13T02:32:24;17.70;1.00
19868;DHT22;10096;51.112;6.776;2023-10-13T02:34:50;17.80;1.00
19868;DHT22;10096;51.112;6.776;2023-10-13T02:37:23;17.80;24.90
19868;DHT22;10096;51.112;6.776;2023-10-13T02:39:54;17.60;99.90
19868;DHT22;10096;51.112;6.776;2023-10-13T02:42:32;17.60;99.90
19868;DHT22;10096;51.112;6.776;2023-10-13T02:44:59;17.60;99.90
19868;DHT22;10096;51.112;6.776;2023-10-13T02:47:32;17.50;99.90
19868;DHT22;10096;51.112;6.776;2023-10-13T02:49:58;17.70;99.90
19868;DHT22;10096;51.112;6.776;2023-10-13T02:52:26;17.60;99.90
19868;DHT22;10096;51.112;6.776;2023-10-13T02:54:58;17.60;99.90
19868;DHT22;10096;51.112;6.776;2023-10-13T02:57:25;17.60;99.90
19868;DHT22;10096;51.112;6.776;2023-10-13T02:59:55;17.70;99.90
19868;DHT22;10096;51.112;6.776;2023-10-13T03:02:37;17.70;99.90
19868;DHT22;10096;51.112;6.776;2023-10-13T03:05:09;17.60;99.90
19868;DHT22;10096;51.112;6.776;2023-10-13T03:07:39;17.70;99.90
19868;DHT22;10096;51.112;6.776;2023-10-13T03:10:09;17.60;99.90
19868;DHT22;10096;51.112;6.776;2023-10-13T03:12:37;17.60;99.90
19868;DHT22;10096;51.112;6.776;2023-10-13T03:15:06;17.80;99.90
19868;DHT22;10096;51.112;6.776;2023-10-13T03:17:42;17.60;99.90
19868;DHT22;10096;51.112;6.776;2023-10-13T03:20:10;17.60;99.90
19868;DHT22;10096;51.112;6.776;2023-10-13T03:22:39;17.60;99.90
19868;DHT22;10096;51.112;6.776;2023-10-13T03:25:19;17.60;99.90
19868;DHT22;10096;51.112;6.776;2023-10-13T03:27:49;17.60;99.90
19868;DHT22;10096;51.112;6.776;2023-10-13T03:30:31;17.60;99.90
19868;DHT22;10096;51.112;6.776;2023-10-13T03:33:08;17.60;99.90
19868;DHT22;10096;51.112;6.776;2023-10-13T03:35:39;17.80;99.90
19868;DHT22;10096;51.112;6.776;2023-10-13T03:38:11;17.60;1.00
19868;DHT22;10096;51.112;6.776;2023-10-13T03:40:44;17.80;1.00
19868;DHT22;10096;51.112;6.776;2023-10-13T03:43:40;17.60;1.00
19868;DHT22;10096;51.112;6.776;2023-10-13T03:46:18;17.60;1.00
19868;DHT22;10096;51.112;6.776;2023-10-13T03:48:47;17.80;1.00
19868;DHT22;10096;51.112;6.776;2023-10-13T03:51:25;17.60;1.00
19868;DHT22;10096;51.112;6.776;2023-10-13T03:54:03;17.60;1.00
19868;DHT22;10096;51.112;6.776;2023-10-13T03:56:33;17.60;1.00
19868;DHT22;10096;51.112;6.776;2023-10-13T03:59:06;17.60;1.00
19868;DHT22;10096;51.112;6.776;2023-10-13T04:01:37;17.60;1.00
19868;DHT22;10096;51.112;6.776;2023-10-13T04:04:18;17.70;1.00
19868;DHT22;10096;51.112;6.776;2023-10-13T04:07:10;17.70;1.00
19868;DHT22;10096;51.112;6.776;2023-10-13T04:10:12;17.80;1.00
19868;DHT22;10096;51.112;6.776;2023-10-13T04:12:58;17.70;1.00
19868;DHT22;10096;51.112;6.776;2023-10-13T04:15:54;17.70;1.00
19868;DHT22;10096;51.112;6.776;2023-10-13T04:19:12;17.70;1.00
19868;DHT22;10096;51.112;6.776;2023-10-13T04:21:48;17.80;1.00
19868;DHT22;10096;51.112;6.776;2023-10-13T04:24:23;17.70;1.00
19868;DHT22;10096;51.112;6.776;2023-10-13T04:27:11;17.70;1.00
19868;DHT22;10096;51.112;6.776;2023-10-13T04:30:23;17.60;1.00
19868;DHT22;10096;51.112;6.776;2023-10-13T04:33:16;17.80;1.00
19868;DHT22;10096;51.112;6.776;2023-10-13T04:36:04;17.70;1.00
19868;DHT22;10096;51.112;6.776;2023-10-13T04:38:39;17.70;36.70
19868;DHT22;10096;51.112;6.776;2023-10-13T04:41:25;17.90;83.70
19868;DHT22;10096;51.112;6.776;2023-10-13T04:43:57;17.80;99.90
19868;DHT22;10096;51.112;6.776;2023-10-13T04:46:32;17.70;99.90
19868;DHT22;10096;51.112;6.776;2023-10-13T04:49:05;18.00;99.90
19868;DHT22;10096;51.112;6.776;2023-10-13T04:51:54;17.90;99.90
19868;DHT22;10096;51.112;6.776;2023-10-13T04:54:25;17.80;99.90
19868;DHT22;10096;51.112;6.776;2023-10-13T04:57:11;17.70;99.90
19868;DHT22;10096;51.112;6.776;2023-10-13T04:59:51;17.80;99.90
19868;DHT22;10096;51.112;6.776;2023-10-13T05:02:36;17.80;99.90
19868;DHT22;10096;51.112;6.776;2023-10-13T05:05:21;17.80;99.90
19868;DHT22;10096;51.112;6.776;2023-10-13T05:08:11;17.80;99.90
19868;DHT22;10096;51.112;6.776;2023-10-13T05:11:06;18.00;1.00
19868;DHT22;10096;51.112;6.776;2023-10-13T05:13:56;18.00;1.00
19868;DHT22;10096;51.112;6.776;2023-10-13T05:16:45;17.90;1.00
19868;DHT22;10096;51.112;6.776;2023-10-13T05:19:29;18.10;1.00
19868;DHT22;10096;51.112;6.776;2023-10-13T05:22:14;18.20;1.00
19868;DHT22;10096;51.112;6.776;2023-10-13T05:28:11;18.00;1.00
19868;DHT22;10096;51.112;6.776;2023-10-13T05:31:02;18.00;1.00
19868;DHT22;10096;51.112;6.776;2023-10-13T05:33:46;17.80;1.00
19868;DHT22;10096;51.112;6.776;2023-10-13T05:36:34;18.00;1.00
19868;DHT22;10096;51.112;6.776;2023-10-13T05:39:19;18.10;1.00
19868;DHT22;10096;51.112;6.776;2023-10-13T05:42:10;18.10;1.00
19868;DHT22;10096;51.112;6.776;2023-10-13T05:45:06;18.10;1.00
19868;DHT22;10096;51.112;6.776;2023-10-13T05:47:50;18.10;1.00
19868;DHT22;10096;51.112;6.776;2023-10-13T05:50:28;18.20;1.00
19868;DHT22;10096;51.112;6.776;2023-10-13T05:53:08;18.50;1.00
19868;DHT22;10096;51.112;6.776;2023-10-13T05:55:52;18.20;1.00
19868;DHT22;10096;51.112;6.776;2023-10-13T05:58:46;18.30;1.00
19868;DHT22;10096;51.112;6.776;2023-10-13T06:01:31;18.20;1.00
19868;DHT22;10096;51.112;6.776;2023-10-13T06:04:12;18.20;1.00
19868;DHT22;10096;51.112;6.776;2023-10-13T06:06:56;18.40;1.00
19868;DHT22;10096;51.112;6.776;2023-10-13T06:09:40;18.30;1.00
19868;DHT22;10096;51.112;6.776;2023-10-13T06:12:25;18.30;1.00
19868;DHT22;10096;51.112;6.776;2023-10-13T06:15:11;18.50;1.00
19868;DHT22;10096;51.112;6.776;2023-10-13T06:17:55;18.40;1.00
19868;DHT22;10096;51.112;6.776;2023-10-13T06:20:39;18.40;1.00
19868;DHT22;10096;51.112;6.776;2023-10-13T06:23:24;18.50;1.00
19868;DHT22;10096;51.112;6.776;2023-10-13T06:26:10;18.50;1.00
19868;DHT22;10096;51.112;6.776;2023-10-13T06:28:55;18.40;99.90
19868;DHT22;10096;51.112;6.776;2023-10-13T06:31:23;18.40;99.90
19868;DHT22;10096;51.112;6.776;2023-10-13T06:33:51;18.40;99.90
19868;DHT22;10096;51.112;6.776;2023-10-13T06:36:20;18.40;99.90
19868;DHT22;10096;51.112;6.776;2023-10-13T06:38:47;18.40;99.90
19868;DHT22;10096;51.112;6.776;2023-10-13T06:41:20;18.40;99.90
19868;DHT22;10096;51.112;6.776;2023-10-13T06:43:56;18.40;1.00
19868;DHT22;10096;51.112;6.776;2023-10-13T06:46:30;18.30;99.90
19868;DHT22;10096;51.112;6.776;2023-10-13T06:49:02;18.40;99.90
19868;DHT22;10096;51.112;6.776;2023-10-13T06:51:31;18.40;99.90
19868;DHT22;10096;51.112;6.776;2023-10-13T06:54:05;18.30;99.90
19868;DHT22;10096;51.112;6.776;2023-10-13T06:56:36;18.40;99.90
19868;DHT22;10096;51.112;6.776;2023-10-13T06:59:06;18.40;99.90
19868;DHT22;10096;51.112;6.776;2023-10-13T07:01:35;18.50;99.90
19868;DHT22;10096;51.112;6.776;2023-10-13T07:04:05;18.70;99.90
19868;DHT22;10096;51.112;6.776;2023-10-13T07:06:39;18.60;99.90
19868;DHT22;10096;51.112;6.776;2023-10-13T07:09:08;18.30;99.90
19868;DHT22;10096;51.112;6.776;2023-10-13T07:11:53;18.60;21.40
19868;DHT22;10096;51.112;6.776;2023-10-13T07:14:20;18.70;5.60
19868;DHT22;10096;51.112;6.776;2023-10-13T07:17:12;18.70;1.00
19868;DHT22;10096;51.112;6.776;2023-10-13T07:19:38;18.90;99.90
19868;DHT22;10096;51.112;6.776;2023-10-13T07:22:27;18.80;99.90
19868;DHT22;10096;51.112;6.776;2023-10-13T07:24:54;18.90;99.90
19868;DHT22;10096;51.112;6.776;2023-10-13T07:27:23;18.80;99.90
19868;DHT22;10096;51.112;6.776;2023-10-13T07:30:06;18.80;47.00
19868;DHT22;10096;51.112;6.776;2023-10-13T07:32:40;18.90;1.00
19868;DHT22;10096;51.112;6.776;2023-10-13T07:35:15;18.90;1.00
19868;DHT22;10096;51.112;6.776;2023-10-13T07:38:07;18.80;1.00
19868;DHT22;10096;51.112;6.776;2023-10-13T07:40:37;18.90;1.00
19868;DHT22;10096;51.112;6.776;2023-10-13T07:43:16;19.10;1.00
19868;DHT22;10096;51.112;6.776;2023-10-13T07:45:47;19.30;1.00
19868;DHT22;10096;51.112;6.776;2023-10-13T07:48:19;19.10;99.90
19868;DHT22;10096;51.112;6.776;2023-10-13T07:50:46;19.20;99.90
19868;DHT22;10096;51.112;6.776;2023-10-13T07:53:14;19.30;55.40
19868;DHT22;10096;51.112;6.776;2023-10-13T07:55:48;19.30;1.00
19868;DHT22;10096;51.112;6.776;2023-10-13T07:58:23;19.40;1.00
19868;DHT22;10096;51.112;6.776;2023-10-13T08:01:00;19.40;1.00
19868;DHT22;10096;51.112;6.776;2023-10-13T08:04:18;19.50;1.00
19868;DHT22;10096;51.112;6.776;2023-10-13T08:07:01;19.70;99.90
19868;DHT22;10096;51.112;6.776;2023-10-13T08:09:38;19.80;99.90
19868;DHT22;10096;51.112;6.776;2023-10-13T08:12:09;19.60;81.40
19868;DHT22;10096;51.112;6.776;2023-10-13T08:14:39;19.70;1.00
19868;DHT22;10096;51.112;6.776;2023-10-13T08:17:08;20.00;1.00
19868;DHT22;10096;51.112;6.776;2023-10-13T08:19:40;19.80;1.00
19868;DHT22;10096;51.112;6.776;2023-10-13T08:22:20;19.80;99.90
19868;DHT22;10096;51.112;6.776;2023-10-13T08:25:06;19.80;84.60
19868;DHT22;10096;51.112;6.776;2023-10-13T08:27:57;19.90;1.00
19868;DHT22;10096;51.112;6.776;2023-10-13T08:30:47;20.00;99.90
19868;DHT22;10096;51.112;6.776;2023-10-13T08:33:19;20.00;1.00
19868;DHT22;10096;51.112;6.776;2023-10-13T08:35:59;20.20;99.90
19868;DHT22;10096;51.112;6.776;2023-10-13T08:38:59;20.40;1.00
19868;DHT22;10096;51.112;6.776;2023-10-13T08:41:47;20.40;1.00
19868;DHT22;10096;51.112;6.776;2023-10-13T08:44:26;20.70;1.00
19868;DHT22;10096;51.112;6.776;2023-10-13T08:46:59;20.90;99.90
19868;DHT22;10096;51.112;6.776;2023-10-13T08:49:32;21.00;99.90
19868;DHT22;10096;51.112;6.776;2023-10-13T08:52:09;21.30;99.90
19868;DHT22;10096;51.112;6.776;2023-10-13T08:54:51;21.30;45.70
19868;DHT22;10096;51.112;6.776;2023-10-13T08:57:38;21.40;12.90
19868;DHT22;10096;51.112;6.776;2023-10-13T09:00:31;21.60;1.00
19868;DHT22;10096;51.112;6.776;2023-10-13T09:03:28;21.70;1.00
19868;DHT22;10096;51.112;6.776;2023-10-13T09:06:21;21.70;1.00
19868;DHT22;10096;51.112;6.776;2023-10-13T09:08:49;21.80;1.00
19868;DHT22;10096;51.112;6.776;2023-10-13T09:11:33;21.60;1.00
19868;DHT22;10096;51.112;6.776;2023-10-13T09:14:17;21.60;1.00
19868;DHT22;10096;51.112;6.776;2023-10-13T09:17:02;21.70;1.00
19868;DHT22;10096;51.112;6.776;2023-10-13T09:19:59;22.00;1.00
19868;DHT22;10096;51.112;6.776;2023-10-13T09:22:45;22.10;1.00
19868;DHT22;10096;51.112;6.776;2023-10-13T09:25:23;22.20;1.00
19868;DHT22;10096;51.112;6.776;2023-10-13T09:27:49;22.20;1.00
19868;DHT22;10096;51.112;6.776;2023-10-13T09:30:19;22.30;1.00
19868;DHT22;10096;51.112;6.776;2023-10-13T09:33:03;22.20;1.00
19868;DHT22;10096;51.112;6.776;2023-10-13T09:35:48;22.50;1.00
19868;DHT22;10096;51.112;6.776;2023-10-13T09:38:15;22.40;1.00
19868;DHT22;10096;51.112;6.776;2023-10-13T09:41:09;22.40;1.00
19868;DHT22;10096;51.112;6.776;2023-10-13T09:43:52;22.20;1.00
19868;DHT22;10096;51.112;6.776;2023-10-13T09:46:26;22.50;1.00
19868;DHT22;10096;51.112;6.776;2023-10-13T09:49:05;22.50;1.00
19868;DHT22;10096;51.112;6.776;2023-10-13T09:52:01;22.90;1.00
19868;DHT22;10096;51.112;6.776;2023-10-13T09:54:33;22.90;99.90
19868;DHT22;10096;51.112;6.776;2023-10-13T09:57:10;23.10;99.90
19868;DHT22;10096;51.112;6.776;2023-10-13T09:59:46;23.30;99.90
19868;DHT22;10096;51.112;6.776;2023-10-13T10:02:19;23.50;99.90
19868;DHT22;10096;51.112;6.776;2023-10-13T10:05:05;23.50;99.90
19868;DHT22;10096;51.112;6.776;2023-10-13T10:07:54;23.60;99.90
19868;DHT22;10096;51.112;6.776;2023-10-13T10:10:22;23.60;99.90
19868;DHT22;10096;51.112;6.776;2023-10-13T10:13:15;23.60;99.90
19868;DHT22;10096;51.112;6.776;2023-10-13T10:16:00;23.80;99.90
19868;DHT22;10096;51.112;6.776;2023-10-13T10:18:43;23.80;99.90
19868;DHT22;10096;51.112;6.776;2023-10-13T10:21:31;23.80;99.90
19868;DHT22;10096;51.112;6.776;2023-10-13T10:24:20;23.90;99.90
19868;DHT22;10096;51.112;6.776;2023-10-13T10:27:09;24.30;99.90
19868;DHT22;10096;51.112;6.776;2023-10-13T10:29:55;24.40;99.90
19868;DHT22;10096;51.112;6.776;2023-10-13T10:32:37;24.30;99.90
19868;DHT22;10096;51.112;6.776;2023-10-13T10:35:09;24.50;99.90
19868;DHT22;10096;51.112;6.776;2023-10-13T10:37:40;24.50;99.90
19868;DHT22;10096;51.112;6.776;2023-10-13T10:40:13;24.60;99.90
19868;DHT22;10096;51.112;6.776;2023-10-13T10:42:57;24.80;99.90
19868;DHT22;10096;51.112;6.776;2023-10-13T10:45:27;24.90;99.90
19868;DHT22;10096;51.112;6.776;2023-10-13T10:51:17;25.00;99.90
19868;DHT22;10096;51.112;6.776;2023-10-13T10:53:50;25.20;99.90
19868;DHT22;10096;51.112;6.776;2023-10-13T10:56:19;25.30;99.90
19868;DHT22;10096;51.112;6.776;2023-10-13T10:59:06;25.30;99.90
19868;DHT22;10096;51.112;6.776;2023-10-13T11:01:46;25.40;99.90
19868;DHT22;10096;51.112;6.776;2023-10-13T11:04:17;25.60;99.90
19868;DHT22;10096;51.112;6.776;2023-10-13T11:06:51;25.80;99.90
19868;DHT22;10096;51.112;6.776;2023-10-13T11:09:25;25.90;99.90
19868;DHT22;10096;51.112;6.776;2023-10-13T11:12:11;26.00;99.90
19868;DHT22;10096;51.112;6.776;2023-10-13T11:14:45;25.90;99.90
19868;DHT22;10096;51.112;6.776;2023-10-13T11:17:31;25.90;99.90
19868;DHT22;10096;51.112;6.776;2023-10-13T11:20:19;25.70;99.90
19868;DHT22;10096;51.112;6.776;2023-10-13T11:23:10;26.00;99.90
19868;DHT22;10096;51.112;6.776;2023-10-13T11:25:37;26.30;99.90
19868;DHT22;10096;51.112;6.776;2023-10-13T11:28:11;26.20;99.90
19868;DHT22;10096;51.112;6.776;2023-10-13T11:30:45;26.00;99.90
19868;DHT22;10096;51.112;6.776;2023-10-13T11:33:17;25.90;99.90
19868;DHT22;10096;51.112;6.776;2023-10-13T11:35:49;25.80;99.90
19868;DHT22;10096;51.112;6.776;2023-10-13T11:38:22;25.90;99.90
19868;DHT22;10096;51.112;6.776;2023-10-13T11:41:01;25.70;99.90
19868;DHT22;10096;51.112;6.776;2023-10-13T11:43:49;25.80;99.90
19868;DHT22;10096;51.112;6.776;2023-10-13T11:46:32;25.70;99.90
19868;DHT22;10096;51.112;6.776;2023-10-13T11:49:20;25.80;99.90
19868;DHT22;10096;51.112;6.776;2023-10-13T11:51:58;25.80;99.90
19868;DHT22;10096;51.112;6.776;2023-10-13T11:54:44;25.90;99.90
19868;DHT22;10096;51.112;6.776;2023-10-13T11:57:12;26.00;99.90
19868;DHT22;10096;51.112;6.776;2023-10-13T11:59:42;26.00;99.90
19868;DHT22;10096;51.112;6.776;2023-10-13T12:02:23;25.90;99.90
19868;DHT22;10096;51.112;6.776;2023-10-13T12:05:09;25.90;99.90
19868;DHT22;10096;51.112;6.776;2023-10-13T12:07:39;25.80;99.90
19868;DHT22;10096;51.112;6.776;2023-10-13T12:10:14;25.60;99.90
19868;DHT22;10096;51.112;6.776;2023-10-13T12:13:00;25.50;99.90
19868;DHT22;10096;51.112;6.776;2023-10-13T12:15:32;25.40;99.90
19868;DHT22;10096;51.112;6.776;2023-10-13T12:18:14;25.40;99.90
19868;DHT22;10096;51.112;6.776;2023-10-13T12:20:46;25.40;99.90
19868;DHT22;10096;51.112;6.776;2023-10-13T12:23:22;25.30;99.90
19868;DHT22;10096;51.112;6.776;2023-10-13T12:25:57;25.30;99.90
19868;DHT22;10096;51.112;6.776;2023-10-13T12:28:25;25.10;99.90
19868;DHT22;10096;51.112;6.776;2023-10-13T12:30:55;25.10;99.90
19868;DHT22;10096;51.112;6.776;2023-10-13T12:33:24;25.10;99.90
19868;DHT22;10096;51.112;6.776;2023-10-13T12:36:00;25.10;99.90
19868;DHT22;10096;51.112;6.776;2023-10-13T12:38:33;25.00;99.90
19868;DHT22;10096;51.112;6.776;2023-10-13T12:41:32;25.00;99.90
19868;DHT22;10096;51.112;6.776;2023-10-13T12:44:16;24.90;99.90
19868;DHT22;10096;51.112;6.776;2023-10-13T12:47:01;24.80;99.90
19868;DHT22;10096;51.112;6.776;2023-10-13T12:49:45;24.80;99.90
19868;DHT22;10096;51.112;6.776;2023-10-13T12:52:32;24.90;99.90
19868;DHT22;10096;51.112;6.776;2023-10-13T12:55:01;25.00;99.90
19868;DHT22;10096;51.112;6.776;2023-10-13T12:57:36;25.10;99.90
19868;DHT22;10096;51.112;6.776;2023-10-13T13:00:13;25.20;99.90
19868;DHT22;10096;51.112;6.776;2023-10-13T13:02:46;25.20;99.90
19868;DHT22;10096;51.112;6.776;2023-10-13T13:05:16;25.10;99.90
19868;DHT22;10096;51.112;6.776;2023-10-13T13:07:51;25.10;99.90
19868;DHT22;10096;51.112;6.776;2023-10-13T13:10:21;25.10;99.90
19868;DHT22;10096;51.112;6.776;2023-10-13T13:13:02;25.10;99.90
19868;DHT22;10096;51.112;6.776;2023-10-13T13:15:29;25.20;99.90
19868;DHT22;10096;51.112;6.776;2023-10-13T13:17:56;25.10;99.90
19868;DHT22;10096;51.112;6.776;2023-10-13T13:20:23;25.10;99.90
19868;DHT22;10096;51.112;6.776;2023-10-13T13:22:55;25.10;99.90
19868;DHT22;10096;51.112;6.776;2023-10-13T13:25:28;25.00;99.90
19868;DHT22;10096;51.112;6.776;2023-10-13T13:27:57;25.00;99.90
19868;DHT22;10096;51.112;6.776;2023-10-13T13:30:30;24.90;99.90
19868;DHT22;10096;51.112;6.776;2023-10-13T13:32:59;24.70;99.90
19868;DHT22;10096;51.112;6.776;2023-10-13T13:35:29;24.60;99.90
19868;DHT22;10096;51.112;6.776;2023-10-13T13:38:02;24.50;99.90
19868;DHT22;10096;51.112;6.776;2023-10-13T13:40:37;24.40;99.90
19868;DHT22;10096;51.112;6.776;2023-10-13T13:43:04;24.20;99.90
19868;DHT22;10096;51.112;6.776;2023-10-13T13:45:32;24.20;99.90
19868;DHT22;10096;51.112;6.776;2023-10-13T13:48:00;24.30;99.90
19868;DHT22;10096;51.112;6.776;2023-10-13T13:50:37;24.30;99.90
19868;DHT22;10096;51.112;6.776;2023-10-13T13:53:08;24.30;99.90
19868;DHT22;10096;51.112;6.776;2023-10-13T13:55:37;24.30;99.90
19868;DHT22;10096;51.112;6.776;2023-10-13T13:58:05;24.20;99.90
19868;DHT22;10096;51.112;6.776;2023-10-13T14:00:36;24.20;99.90
19868;DHT22;10096;51.112;6.776;2023-10-13T14:03:04;24.10;99.90
19868;DHT22;10096;51.112;6.776;2023-10-13T14:05:40;24.10;99.90
19868;DHT22;10096;51.112;6.776;2023-10-13T14:08:09;24.10;99.90
19868;DHT22;10096;51.112;6.776;2023-10-13T14:10:41;24.10;99.90
19868;DHT22;10096;51.112;6.776;2023-10-13T14:13:22;24.00;99.90
19868;DHT22;10096;51.112;6.776;2023-10-13T14:16:11;24.00;99.90
19868;DHT22;10096;51.112;6.776;2023-10-13T14:18:42;24.00;99.90
19868;DHT22;10096;51.112;6.776;2023-10-13T14:21:08;24.00;99.90
19868;DHT22;10096;51.112;6.776;2023-10-13T14:23:40;24.00;99.90
19868;DHT22;10096;51.112;6.776;2023-10-13T14:26:07;23.90;99.90
19868;DHT22;10096;51.112;6.776;2023-10-13T14:28:43;23.90;99.90
19868;DHT22;10096;51.112;6.776;2023-10-13T14:31:18;23.70;99.90
19868;DHT22;10096;51.112;6.776;2023-10-13T14:33:46;23.90;99.90
19868;DHT22;10096;51.112;6.776;2023-10-13T14:36:14;23.80;99.90
19868;DHT22;10096;51.112;6.776;2023-10-13T14:38:47;23.80;99.90
19868;DHT22;10096;51.112;6.776;2023-10-13T14:41:16;23.80;99.90
19868;DHT22;10096;51.112;6.776;2023-10-13T14:43:44;23.80;99.90
19868;DHT22;10096;51.112;6.776;2023-10-13T14:46:14;23.80;99.90
19868;DHT22;10096;51.112;6.776;2023-10-13T14:48:41;23.70;99.90
19868;DHT22;10096;51.112;6.776;2023-10-13T14:51:22;23.70;99.90
19868;DHT22;10096;51.112;6.776;2023-10-13T14:53:52;23.70;99.90
19868;DHT22;10096;51.112;6.776;2023-10-13T14:56:22;23.70;99.90
19868;DHT22;10096;51.112;6.776;2023-10-13T14:58:51;23.70;99.90
19868;DHT22;10096;51.112;6.776;2023-10-13T15:01:19;23.70;99.90
19868;DHT22;10096;51.112;6.776;2023-10-13T15:03:48;23.60;99.90
19868;DHT22;10096;51.112;6.776;2023-10-13T15:06:15;23.60;99.90
19868;DHT22;10096;51.112;6.776;2023-10-13T15:08:44;23.60;99.90
19868;DHT22;10096;51.112;6.776;2023-10-13T15:11:14;23.60;99.90
19868;DHT22;10096;51.112;6.776;2023-10-13T15:13:43;23.60;99.90
19868;DHT22;10096;51.112;6.776;2023-10-13T15:16:15;23.50;99.90
19868;DHT22;10096;51.112;6.776;2023-10-13T15:18:43;23.40;99.90
19868;DHT22;10096;51.112;6.776;2023-10-13T15:21:11;23.30;99.90
19868;DHT22;10096;51.112;6.776;2023-10-13T15:23:39;23.30;99.90
19868;DHT22;10096;51.112;6.776;2023-10-13T15:26:09;23.30;99.90
19868;DHT22;10096;51.112;6.776;2023-10-13T15:28:39;23.30;99.90
19868;DHT22;10096;51.112;6.776;2023-10-13T15:31:14;23.30;99.90
19868;DHT22;10096;51.112;6.776;2023-10-13T15:34:04;23.30;99.90
19868;DHT22;10096;51.112;6.776;2023-10-13T15:36:33;23.30;99.90
19868;DHT22;10096;51.112;6.776;2023-10-13T15:39:00;23.20;99.90
19868;DHT22;10096;51.112;6.776;2023-10-13T15:41:29;23.20;99.90
19868;DHT22;10096;51.112;6.776;2023-10-13T15:43:57;23.10;99.90
19868;DHT22;10096;51.112;6.776;2023-10-13T15:46:24;23.10;99.90
19868;DHT22;10096;51.112;6.776;2023-10-13T15:48:52;23.20;99.90
19868;DHT22;10096;51.112;6.776;2023-10-13T15:51:22;23.10;99.90
19868;DHT22;10096;51.112;6.776;2023-10-13T15:53:50;23.20;99.90
19868;DHT22;10096;51.112;6.776;2023-10-13T15:56:21;23.10;99.90
19868;DHT22;10096;51.112;6.776;2023-10-13T15:58:48;23.10;99.90
19868;DHT22;10096;51.112;6.776;2023-10-13T16:01:17;23.00;99.90
19868;DHT22;10096;51.112;6.776;2023-10-13T16:03:52;23.00;99.90
19868;DHT22;10096;51.112;6.776;2023-10-13T16:06:19;22.60;99.90
19868;DHT22;10096;51.112;6.776;2023-10-13T16:08:51;22.90;99.90
19868;DHT22;10096;51.112;6.776;2023-10-13T16:11:19;22.90;99.90
19868;DHT22;10096;51.112;6.776;2023-10-13T16:13:47;22.80;99.90
19868;DHT22;10096;51.112;6.776;2023-10-13T16:16:19;22.70;99.90
19868;DHT22;10096;51.112;6.776;2023-10-13T16:18:48;22.70;99.90
19868;DHT22;10096;51.112;6.776;2023-10-13T16:21:16;22.70;99.90
19868;DHT22;10096;51.112;6.776;2023-10-13T16:23:44;22.60;99.90
19868;DHT22;10096;51.112;6.776;2023-10-13T16:26:13;22.60;99.90
19868;DHT22;10096;51.112;6.776;2023-10-13T16:28:44;22.60;99.90
19868;DHT22;10096;51.112;6.776;2023-10-13T16:31:10;22.50;99.90
19868;DHT22;10096;51.112;6.776;2023-10-13T16:33:39;22.50;99.90
19868;DHT22;10096;51.112;6.776;2023-10-13T16:36:07;22.30;99.90
19868;DHT22;10096;51.112;6.776;2023-10-13T16:38:34;22.30;99.90
19868;DHT22;10096;51.112;6.776;2023-10-13T16:41:02;22.30;99.90
19868;DHT22;10096;51.112;6.776;2023-10-13T16:43:34;22.30;99.90
19868;DHT22;10096;51.112;6.776;2023-10-13T16:46:01;22.30;99.90
19868;DHT22;10096;51.112;6.776;2023-10-13T16:48:32;22.30;99.90
19868;DHT22;10096;51.112;6.776;2023-10-13T16:51:00;22.20;99.90
19868;DHT22;10096;51.112;6.776;2023-10-13T16:53:27;22.30;99.90
19868;DHT22;10096;51.112;6.776;2023-10-13T16:55:58;22.20;99.90